sensor_id;sensor_type;location;lat;lon;timestamp;P1;durP1;ratioP1;P2;durP2;ratioP2
14748;SDS011;7466;53.574;9.976;2023-05-10T00:01:43;4.87;;;3.43;;
14748;SDS011;7466;53.574;9.976;2023-05-10T00:04:09;6.13;;;3.63;;
14748;SDS011;7466;53.574;9.976;2023-05-10T00:06:36;6.07;;;3.50;;
14748;SDS011;7466;53.574;9.976;2023-05-10T00:09:03;5.70;;;3.80;;
14748;SDS011;7466;53.574;9.976;2023-05-10T00:11:30;4.57;;;3.50;;
14748;SDS011;7466;53.574;9.976;2023-05-10T00:13:58;4.00;;;3.70;;
14748;SDS011;7466;53.574;9.976;2023-05-10T00:16:24;7.03;;;3.67;;
14748;SDS011;7466;53.574;9.976;2023-05-10T00:18:51;4.37;;;3.77;;
14748;SDS011;7466;53.574;9.976;2023-05-10T00:21:18;6.07;;;3.63;;
14748;SDS011;7466;53.574;9.976;2023-05-10T00:23:45;5.20;;;3.40;;
14748;SDS011;7466;53.574;9.976;2023-05-10T00:26:11;4.10;;;3.80;;
14748;SDS011;7466;53.574;9.976;2023-05-10T00:28:38;3.90;;;3.60;;
14748;SDS011;7466;53.574;9.976;2023-05-10T00:31:06;5.07;;;3.50;;
14748;SDS011;7466;53.574;9.976;2023-05-10T00:33:35;5.27;;;3.57;;
14748;SDS011;7466;53.574;9.976;2023-05-10T00:36:02;4.70;;;3.93;;
14748;SDS011;7466;53.574;9.976;2023-05-10T00:38:29;4.53;;;3.67;;
14748;SDS011;7466;53.574;9.976;2023-05-10T00:40:56;7.07;;;3.60;;
14748;SDS011;7466;53.574;9.976;2023-05-10T00:43:22;5.57;;;3.70;;
14748;SDS011;7466;53.574;9.976;2023-05-10T00:45:49;5.60;;;3.90;;
14748;SDS011;7466;53.574;9.976;2023-05-10T00:48:17;4.30;;;4.00;;
14748;SDS011;7466;53.574;9.976;2023-05-10T00:50:45;3.90;;;3.50;;
14748;SDS011;7466;53.574;9.976;2023-05-10T00:53:12;3.70;;;3.27;;
14748;SDS011;7466;53.574;9.976;2023-05-10T00:55:40;4.90;;;4.00;;
14748;SDS011;7466;53.574;9.976;2023-05-10T00:58:07;4.20;;;3.80;;
14748;SDS011;7466;53.574;9.976;2023-05-10T01:00:34;4.77;;;3.53;;
14748;SDS011;7466;53.574;9.976;2023-05-10T01:03:03;4.47;;;3.70;;
14748;SDS011;7466;53.574;9.976;2023-05-10T01:05:31;6.03;;;3.80;;
14748;SDS011;7466;53.574;9.976;2023-05-10T01:07:58;6.13;;;4.13;;
14748;SDS011;7466;53.574;9.976;2023-05-10T01:10:25;4.00;;;3.70;;
14748;SDS011;7466;53.574;9.976;2023-05-10T01:12:52;4.67;;;3.80;;
14748;SDS011;7466;53.574;9.976;2023-05-10T01:15:19;5.90;;;4.03;;
14748;SDS011;7466;53.574;9.976;2023-05-10T01:17:47;5.13;;;3.87;;
14748;SDS011;7466;53.574;9.976;2023-05-10T01:20:14;5.33;;;3.70;;
14748;SDS011;7466;53.574;9.976;2023-05-10T01:23:03;7.27;;;3.90;;
14748;SDS011;7466;53.574;9.976;2023-05-10T01:25:49;4.23;;;3.83;;
14748;SDS011;7466;53.574;9.976;2023-05-10T01:28:44;4.30;;;3.90;;
14748;SDS011;7466;53.574;9.976;2023-05-10T01:34:32;4.97;;;3.90;;
14748;SDS011;7466;53.574;9.976;2023-05-10T01:37:05;4.33;;;3.93;;
14748;SDS011;7466;53.574;9.976;2023-05-10T01:39:36;8.13;;;3.93;;
14748;SDS011;7466;53.574;9.976;2023-05-10T01:42:10;4.33;;;3.90;;
14748;SDS011;7466;53.574;9.976;2023-05-10T01:44:42;4.17;;;3.83;;
14748;SDS011;7466;53.574;9.976;2023-05-10T01:47:17;5.00;;;4.17;;
14748;SDS011;7466;53.574;9.976;2023-05-10T01:49:50;6.03;;;4.00;;
14748;SDS011;7466;53.574;9.976;2023-05-10T01:52:22;4.13;;;3.83;;
14748;SDS011;7466;53.574;9.976;2023-05-10T01:54:58;7.23;;;4.33;;
14748;SDS011;7466;53.574;9.976;2023-05-10T01:57:35;6.03;;;4.27;;
14748;SDS011;7466;53.574;9.976;2023-05-10T02:00:05;6.60;;;4.37;;
14748;SDS011;7466;53.574;9.976;2023-05-10T02:02:35;6.23;;;4.13;;
14748;SDS011;7466;53.574;9.976;2023-05-10T02:05:05;4.77;;;3.87;;
14748;SDS011;7466;53.574;9.976;2023-05-10T02:07:39;4.63;;;3.90;;
14748;SDS011;7466;53.574;9.976;2023-05-10T02:10:07;4.80;;;4.40;;
14748;SDS011;7466;53.574;9.976;2023-05-10T02:12:36;6.93;;;3.97;;
14748;SDS011;7466;53.574;9.976;2023-05-10T02:15:10;6.27;;;4.20;;
14748;SDS011;7466;53.574;9.976;2023-05-10T02:17:41;5.27;;;4.23;;
14748;SDS011;7466;53.574;9.976;2023-05-10T02:20:09;7.70;;;4.13;;
14748;SDS011;7466;53.574;9.976;2023-05-10T02:22:37;4.93;;;4.13;;
14748;SDS011;7466;53.574;9.976;2023-05-10T02:25:06;7.83;;;4.20;;
14748;SDS011;7466;53.574;9.976;2023-05-10T02:27:40;4.93;;;3.80;;
14748;SDS011;7466;53.574;9.976;2023-05-10T02:30:09;4.30;;;3.90;;
14748;SDS011;7466;53.574;9.976;2023-05-10T02:32:36;4.30;;;3.90;;
14748;SDS011;7466;53.574;9.976;2023-05-10T02:35:06;6.00;;;4.00;;
14748;SDS011;7466;53.574;9.976;2023-05-10T02:37:34;4.20;;;3.90;;
14748;SDS011;7466;53.574;9.976;2023-05-10T02:40:03;4.73;;;4.30;;
14748;SDS011;7466;53.574;9.976;2023-05-10T02:42:32;4.50;;;4.00;;
14748;SDS011;7466;53.574;9.976;2023-05-10T02:45:04;4.30;;;4.00;;
14748;SDS011;7466;53.574;9.976;2023-05-10T02:47:37;4.67;;;3.93;;
14748;SDS011;7466;53.574;9.976;2023-05-10T02:50:04;4.47;;;4.07;;
14748;SDS011;7466;53.574;9.976;2023-05-10T02:52:39;4.50;;;3.93;;
14748;SDS011;7466;53.574;9.976;2023-05-10T02:55:09;4.10;;;3.70;;
14748;SDS011;7466;53.574;9.976;2023-05-10T02:57:39;8.67;;;4.40;;
14748;SDS011;7466;53.574;9.976;2023-05-10T03:00:09;4.77;;;4.30;;
14748;SDS011;7466;53.574;9.976;2023-05-10T03:02:36;5.33;;;4.17;;
14748;SDS011;7466;53.574;9.976;2023-05-10T03:05:14;4.67;;;4.17;;
14748;SDS011;7466;53.574;9.976;2023-05-10T03:07:48;4.87;;;3.93;;
14748;SDS011;7466;53.574;9.976;2023-05-10T03:10:17;5.13;;;4.30;;
14748;SDS011;7466;53.574;9.976;2023-05-10T03:12:48;5.97;;;4.10;;
14748;SDS011;7466;53.574;9.976;2023-05-10T03:15:41;4.83;;;4.20;;
14748;SDS011;7466;53.574;9.976;2023-05-10T03:18:15;5.43;;;4.20;;
14748;SDS011;7466;53.574;9.976;2023-05-10T03:20:49;8.53;;;4.47;;
14748;SDS011;7466;53.574;9.976;2023-05-10T03:23:20;7.20;;;4.17;;
14748;SDS011;7466;53.574;9.976;2023-05-10T03:25:50;4.10;;;3.80;;
14748;SDS011;7466;53.574;9.976;2023-05-10T03:28:20;4.40;;;4.10;;
14748;SDS011;7466;53.574;9.976;2023-05-10T03:30:48;7.17;;;4.60;;
14748;SDS011;7466;53.574;9.976;2023-05-10T03:33:17;4.87;;;4.40;;
14748;SDS011;7466;53.574;9.976;2023-05-10T03:35:44;5.00;;;4.43;;
14748;SDS011;7466;53.574;9.976;2023-05-10T03:38:12;4.33;;;4.03;;
14748;SDS011;7466;53.574;9.976;2023-05-10T03:40:39;8.13;;;4.40;;
14748;SDS011;7466;53.574;9.976;2023-05-10T03:43:08;4.60;;;4.20;;
14748;SDS011;7466;53.574;9.976;2023-05-10T03:45:34;4.60;;;4.20;;
14748;SDS011;7466;53.574;9.976;2023-05-10T03:48:01;4.97;;;4.20;;
14748;SDS011;7466;53.574;9.976;2023-05-10T03:50:28;5.23;;;4.30;;
14748;SDS011;7466;53.574;9.976;2023-05-10T03:52:55;5.63;;;4.73;;
14748;SDS011;7466;53.574;9.976;2023-05-10T03:55:23;5.53;;;4.40;;
14748;SDS011;7466;53.574;9.976;2023-05-10T03:57:53;4.73;;;4.10;;
14748;SDS011;7466;53.574;9.976;2023-05-10T04:00:23;5.63;;;4.23;;
14748;SDS011;7466;53.574;9.976;2023-05-10T04:02:49;8.83;;;4.67;;
14748;SDS011;7466;53.574;9.976;2023-05-10T04:05:16;4.67;;;3.77;;
14748;SDS011;7466;53.574;9.976;2023-05-10T04:07:43;5.60;;;4.10;;
14748;SDS011;7466;53.574;9.976;2023-05-10T04:10:10;5.77;;;4.27;;
14748;SDS011;7466;53.574;9.976;2023-05-10T04:12:38;6.70;;;4.80;;
14748;SDS011;7466;53.574;9.976;2023-05-10T04:15:05;5.47;;;4.43;;
14748;SDS011;7466;53.574;9.976;2023-05-10T04:17:33;6.87;;;4.33;;
14748;SDS011;7466;53.574;9.976;2023-05-10T04:19:59;4.70;;;4.30;;
14748;SDS011;7466;53.574;9.976;2023-05-10T04:22:26;4.80;;;4.13;;
14748;SDS011;7466;53.574;9.976;2023-05-10T04:24:54;4.50;;;4.10;;
14748;SDS011;7466;53.574;9.976;2023-05-10T04:27:20;4.50;;;4.07;;
14748;SDS011;7466;53.574;9.976;2023-05-10T04:29:48;6.20;;;4.27;;
14748;SDS011;7466;53.574;9.976;2023-05-10T04:32:15;5.97;;;4.13;;
14748;SDS011;7466;53.574;9.976;2023-05-10T04:34:44;6.67;;;4.40;;
14748;SDS011;7466;53.574;9.976;2023-05-10T04:37:10;7.53;;;4.60;;
14748;SDS011;7466;53.574;9.976;2023-05-10T04:39:37;5.93;;;4.47;;
14748;SDS011;7466;53.574;9.976;2023-05-10T04:42:04;6.37;;;4.17;;
14748;SDS011;7466;53.574;9.976;2023-05-10T04:44:32;4.60;;;3.97;;
14748;SDS011;7466;53.574;9.976;2023-05-10T04:47:00;4.90;;;4.50;;
14748;SDS011;7466;53.574;9.976;2023-05-10T04:49:27;5.63;;;4.57;;
14748;SDS011;7466;53.574;9.976;2023-05-10T04:51:54;9.00;;;4.60;;
14748;SDS011;7466;53.574;9.976;2023-05-10T04:54:21;5.80;;;4.17;;
14748;SDS011;7466;53.574;9.976;2023-05-10T04:56:48;6.20;;;4.70;;
14748;SDS011;7466;53.574;9.976;2023-05-10T04:59:14;7.13;;;4.73;;
14748;SDS011;7466;53.574;9.976;2023-05-10T05:01:41;4.80;;;3.87;;
14748;SDS011;7466;53.574;9.976;2023-05-10T05:04:09;5.07;;;4.67;;
14748;SDS011;7466;53.574;9.976;2023-05-10T05:06:36;5.07;;;4.50;;
14748;SDS011;7466;53.574;9.976;2023-05-10T05:09:03;9.70;;;4.70;;
14748;SDS011;7466;53.574;9.976;2023-05-10T05:11:29;4.90;;;4.40;;
14748;SDS011;7466;53.574;9.976;2023-05-10T05:13:56;5.87;;;4.43;;
14748;SDS011;7466;53.574;9.976;2023-05-10T05:16:23;5.00;;;4.50;;
14748;SDS011;7466;53.574;9.976;2023-05-10T05:18:50;5.27;;;4.63;;
14748;SDS011;7466;53.574;9.976;2023-05-10T05:21:18;6.70;;;4.83;;
14748;SDS011;7466;53.574;9.976;2023-05-10T05:23:51;5.40;;;4.40;;
14748;SDS011;7466;53.574;9.976;2023-05-10T05:26:18;5.17;;;4.47;;
14748;SDS011;7466;53.574;9.976;2023-05-10T05:28:45;7.57;;;4.73;;
14748;SDS011;7466;53.574;9.976;2023-05-10T05:31:13;6.60;;;4.70;;
14748;SDS011;7466;53.574;9.976;2023-05-10T05:33:40;4.77;;;4.30;;
14748;SDS011;7466;53.574;9.976;2023-05-10T05:36:09;6.07;;;4.83;;
14748;SDS011;7466;53.574;9.976;2023-05-10T05:38:43;4.70;;;4.13;;
14748;SDS011;7466;53.574;9.976;2023-05-10T05:41:30;5.57;;;4.47;;
14748;SDS011;7466;53.574;9.976;2023-05-10T05:43:56;6.03;;;4.60;;
14748;SDS011;7466;53.574;9.976;2023-05-10T05:46:23;5.13;;;4.63;;
14748;SDS011;7466;53.574;9.976;2023-05-10T05:48:54;5.60;;;4.77;;
14748;SDS011;7466;53.574;9.976;2023-05-10T05:51:20;5.97;;;4.83;;
14748;SDS011;7466;53.574;9.976;2023-05-10T05:53:48;6.73;;;4.87;;
14748;SDS011;7466;53.574;9.976;2023-05-10T05:56:15;7.63;;;4.60;;
14748;SDS011;7466;53.574;9.976;2023-05-10T05:58:49;6.63;;;4.53;;
14748;SDS011;7466;53.574;9.976;2023-05-10T06:01:15;9.10;;;4.70;;
14748;SDS011;7466;53.574;9.976;2023-05-10T06:03:42;5.53;;;5.03;;
14748;SDS011;7466;53.574;9.976;2023-05-10T06:06:09;5.00;;;4.60;;
14748;SDS011;7466;53.574;9.976;2023-05-10T06:08:35;4.67;;;4.27;;
14748;SDS011;7466;53.574;9.976;2023-05-10T06:11:04;5.10;;;4.63;;
14748;SDS011;7466;53.574;9.976;2023-05-10T06:13:33;5.30;;;4.30;;
14748;SDS011;7466;53.574;9.976;2023-05-10T06:16:03;5.27;;;4.73;;
14748;SDS011;7466;53.574;9.976;2023-05-10T06:18:30;6.23;;;4.60;;
14748;SDS011;7466;53.574;9.976;2023-05-10T06:20:57;5.43;;;4.93;;
14748;SDS011;7466;53.574;9.976;2023-05-10T06:23:23;9.23;;;5.00;;
14748;SDS011;7466;53.574;9.976;2023-05-10T06:25:54;5.13;;;4.40;;
14748;SDS011;7466;53.574;9.976;2023-05-10T06:28:22;5.67;;;4.50;;
14748;SDS011;7466;53.574;9.976;2023-05-10T06:30:49;5.93;;;4.40;;
14748;SDS011;7466;53.574;9.976;2023-05-10T06:33:15;6.90;;;4.60;;
14748;SDS011;7466;53.574;9.976;2023-05-10T06:35:42;4.93;;;4.40;;
14748;SDS011;7466;53.574;9.976;2023-05-10T06:38:09;8.77;;;5.00;;
14748;SDS011;7466;53.574;9.976;2023-05-10T06:40:35;4.93;;;4.43;;
14748;SDS011;7466;53.574;9.976;2023-05-10T06:43:02;5.10;;;4.70;;
14748;SDS011;7466;53.574;9.976;2023-05-10T06:45:30;5.17;;;4.63;;
14748;SDS011;7466;53.574;9.976;2023-05-10T06:47:57;5.40;;;4.80;;
14748;SDS011;7466;53.574;9.976;2023-05-10T06:50:24;10.53;;;4.93;;
14748;SDS011;7466;53.574;9.976;2023-05-10T06:52:51;6.33;;;4.60;;
14748;SDS011;7466;53.574;9.976;2023-05-10T06:55:18;7.47;;;5.00;;
14748;SDS011;7466;53.574;9.976;2023-05-10T06:57:45;5.37;;;4.90;;
14748;SDS011;7466;53.574;9.976;2023-05-10T07:00:12;5.27;;;4.60;;
14748;SDS011;7466;53.574;9.976;2023-05-10T07:02:41;6.87;;;4.70;;
14748;SDS011;7466;53.574;9.976;2023-05-10T07:05:08;5.40;;;4.93;;
14748;SDS011;7466;53.574;9.976;2023-05-10T07:07:35;5.13;;;4.63;;
14748;SDS011;7466;53.574;9.976;2023-05-10T07:10:02;5.40;;;4.53;;
14748;SDS011;7466;53.574;9.976;2023-05-10T07:12:29;5.13;;;4.63;;
14748;SDS011;7466;53.574;9.976;2023-05-10T07:14:59;6.13;;;4.57;;
14748;SDS011;7466;53.574;9.976;2023-05-10T07:17:25;9.03;;;4.73;;
14748;SDS011;7466;53.574;9.976;2023-05-10T07:19:53;6.03;;;4.20;;
14748;SDS011;7466;53.574;9.976;2023-05-10T07:22:20;9.40;;;4.37;;
14748;SDS011;7466;53.574;9.976;2023-05-10T07:24:47;6.87;;;4.53;;
14748;SDS011;7466;53.574;9.976;2023-05-10T07:27:14;4.93;;;4.53;;
14748;SDS011;7466;53.574;9.976;2023-05-10T07:29:40;7.30;;;4.43;;
14748;SDS011;7466;53.574;9.976;2023-05-10T07:32:07;5.47;;;4.90;;
14748;SDS011;7466;53.574;9.976;2023-05-10T07:34:34;8.07;;;4.67;;
14748;SDS011;7466;53.574;9.976;2023-05-10T07:37:02;7.80;;;4.80;;
14748;SDS011;7466;53.574;9.976;2023-05-10T07:39:29;9.50;;;4.63;;
14748;SDS011;7466;53.574;9.976;2023-05-10T07:41:59;9.50;;;4.70;;
14748;SDS011;7466;53.574;9.976;2023-05-10T07:44:28;7.00;;;4.60;;
14748;SDS011;7466;53.574;9.976;2023-05-10T07:46:55;6.70;;;4.47;;
14748;SDS011;7466;53.574;9.976;2023-05-10T07:49:22;12.50;;;4.77;;
14748;SDS011;7466;53.574;9.976;2023-05-10T07:51:50;5.50;;;4.50;;
14748;SDS011;7466;53.574;9.976;2023-05-10T07:54:18;6.87;;;4.70;;
14748;SDS011;7466;53.574;9.976;2023-05-10T07:56:46;5.63;;;4.33;;
14748;SDS011;7466;53.574;9.976;2023-05-10T07:59:17;6.77;;;4.53;;
14748;SDS011;7466;53.574;9.976;2023-05-10T08:01:44;5.30;;;4.40;;
14748;SDS011;7466;53.574;9.976;2023-05-10T08:04:11;5.70;;;4.47;;
14748;SDS011;7466;53.574;9.976;2023-05-10T08:06:37;6.43;;;4.63;;
14748;SDS011;7466;53.574;9.976;2023-05-10T08:09:14;4.67;;;4.27;;
14748;SDS011;7466;53.574;9.976;2023-05-10T08:11:44;7.07;;;4.77;;
14748;SDS011;7466;53.574;9.976;2023-05-10T08:14:10;9.17;;;4.97;;
14748;SDS011;7466;53.574;9.976;2023-05-10T08:16:37;8.73;;;4.33;;
14748;SDS011;7466;53.574;9.976;2023-05-10T08:19:04;5.13;;;4.57;;
14748;SDS011;7466;53.574;9.976;2023-05-10T08:21:30;8.37;;;4.30;;
14748;SDS011;7466;53.574;9.976;2023-05-10T08:23:57;6.53;;;4.50;;
14748;SDS011;7466;53.574;9.976;2023-05-10T08:26:24;10.00;;;4.53;;
14748;SDS011;7466;53.574;9.976;2023-05-10T08:28:52;6.37;;;4.53;;
14748;SDS011;7466;53.574;9.976;2023-05-10T08:31:19;6.97;;;4.67;;
14748;SDS011;7466;53.574;9.976;2023-05-10T08:34:10;8.13;;;4.40;;
14748;SDS011;7466;53.574;9.976;2023-05-10T08:36:37;6.07;;;4.50;;
14748;SDS011;7466;53.574;9.976;2023-05-10T08:39:03;6.23;;;4.67;;
14748;SDS011;7466;53.574;9.976;2023-05-10T08:41:31;6.10;;;4.67;;
14748;SDS011;7466;53.574;9.976;2023-05-10T08:44:02;7.73;;;4.50;;
14748;SDS011;7466;53.574;9.976;2023-05-10T08:46:30;8.10;;;4.83;;
14748;SDS011;7466;53.574;9.976;2023-05-10T08:49:00;5.10;;;4.63;;
14748;SDS011;7466;53.574;9.976;2023-05-10T08:51:29;5.47;;;4.37;;
14748;SDS011;7466;53.574;9.976;2023-05-10T08:54:00;6.50;;;4.93;;
14748;SDS011;7466;53.574;9.976;2023-05-10T08:56:28;5.57;;;5.03;;
14748;SDS011;7466;53.574;9.976;2023-05-10T08:58:54;6.10;;;4.77;;
14748;SDS011;7466;53.574;9.976;2023-05-10T09:01:25;7.27;;;5.00;;
14748;SDS011;7466;53.574;9.976;2023-05-10T09:03:52;9.63;;;5.30;;
14748;SDS011;7466;53.574;9.976;2023-05-10T09:06:22;5.67;;;5.00;;
14748;SDS011;7466;53.574;9.976;2023-05-10T09:08:49;6.27;;;5.00;;
14748;SDS011;7466;53.574;9.976;2023-05-10T09:11:18;6.20;;;4.90;;
14748;SDS011;7466;53.574;9.976;2023-05-10T09:13:48;5.40;;;4.93;;
14748;SDS011;7466;53.574;9.976;2023-05-10T09:16:22;7.47;;;4.83;;
14748;SDS011;7466;53.574;9.976;2023-05-10T09:18:53;5.40;;;4.90;;
14748;SDS011;7466;53.574;9.976;2023-05-10T09:21:20;5.60;;;4.97;;
14748;SDS011;7466;53.574;9.976;2023-05-10T09:23:48;7.27;;;5.30;;
14748;SDS011;7466;53.574;9.976;2023-05-10T09:26:21;5.53;;;5.03;;
14748;SDS011;7466;53.574;9.976;2023-05-10T09:28:51;7.83;;;5.00;;
14748;SDS011;7466;53.574;9.976;2023-05-10T09:31:22;6.63;;;5.20;;
14748;SDS011;7466;53.574;9.976;2023-05-10T09:33:53;5.70;;;5.20;;
14748;SDS011;7466;53.574;9.976;2023-05-10T09:36:20;11.20;;;5.43;;
14748;SDS011;7466;53.574;9.976;2023-05-10T09:38:57;8.30;;;5.93;;
14748;SDS011;7466;53.574;9.976;2023-05-10T09:41:23;6.20;;;5.80;;
14748;SDS011;7466;53.574;9.976;2023-05-10T09:43:55;7.60;;;5.87;;
14748;SDS011;7466;53.574;9.976;2023-05-10T09:46:29;6.10;;;5.60;;
14748;SDS011;7466;53.574;9.976;2023-05-10T09:49:02;10.40;;;6.40;;
14748;SDS011;7466;53.574;9.976;2023-05-10T09:51:28;14.87;;;6.67;;
14748;SDS011;7466;53.574;9.976;2023-05-10T09:54:08;7.57;;;6.47;;
14748;SDS011;7466;53.574;9.976;2023-05-10T09:56:36;11.60;;;7.93;;
14748;SDS011;7466;53.574;9.976;2023-05-10T09:59:07;9.33;;;7.20;;
14748;SDS011;7466;53.574;9.976;2023-05-10T10:01:35;9.00;;;7.20;;
14748;SDS011;7466;53.574;9.976;2023-05-10T10:04:04;7.80;;;7.10;;
14748;SDS011;7466;53.574;9.976;2023-05-10T10:06:35;8.03;;;7.10;;
14748;SDS011;7466;53.574;9.976;2023-05-10T10:09:04;7.70;;;7.00;;
14748;SDS011;7466;53.574;9.976;2023-05-10T10:11:33;11.93;;;7.53;;
14748;SDS011;7466;53.574;9.976;2023-05-10T10:14:01;9.57;;;7.57;;
14748;SDS011;7466;53.574;9.976;2023-05-10T10:16:28;8.63;;;7.73;;
14748;SDS011;7466;53.574;9.976;2023-05-10T10:18:55;9.97;;;7.57;;
14748;SDS011;7466;53.574;9.976;2023-05-10T10:21:24;10.63;;;8.17;;
14748;SDS011;7466;53.574;9.976;2023-05-10T10:23:51;9.90;;;8.43;;
14748;SDS011;7466;53.574;9.976;2023-05-10T10:26:18;9.00;;;8.17;;
14748;SDS011;7466;53.574;9.976;2023-05-10T10:28:51;10.90;;;8.10;;
14748;SDS011;7466;53.574;9.976;2023-05-10T10:31:34;10.00;;;7.97;;
14748;SDS011;7466;53.574;9.976;2023-05-10T10:34:05;11.27;;;8.57;;
14748;SDS011;7466;53.574;9.976;2023-05-10T10:36:40;13.50;;;9.00;;
14748;SDS011;7466;53.574;9.976;2023-05-10T10:39:10;13.07;;;9.27;;
14748;SDS011;7466;53.574;9.976;2023-05-10T10:41:38;10.53;;;9.07;;
14748;SDS011;7466;53.574;9.976;2023-05-10T10:44:33;9.27;;;8.43;;
14748;SDS011;7466;53.574;9.976;2023-05-10T10:49:50;9.63;;;8.70;;
14748;SDS011;7466;53.574;9.976;2023-05-10T10:52:31;10.30;;;9.23;;
14748;SDS011;7466;53.574;9.976;2023-05-10T10:55:04;9.33;;;8.43;;
14748;SDS011;7466;53.574;9.976;2023-05-10T10:57:44;9.17;;;8.53;;
14748;SDS011;7466;53.574;9.976;2023-05-10T11:00:19;8.93;;;8.13;;
14748;SDS011;7466;53.574;9.976;2023-05-10T11:02:53;9.37;;;8.33;;
14748;SDS011;7466;53.574;9.976;2023-05-10T11:05:23;9.03;;;8.47;;
14748;SDS011;7466;53.574;9.976;2023-05-10T11:07:53;9.63;;;8.83;;
14748;SDS011;7466;53.574;9.976;2023-05-10T11:10:21;9.93;;;9.00;;
14748;SDS011;7466;53.574;9.976;2023-05-10T11:12:51;12.33;;;8.53;;
14748;SDS011;7466;53.574;9.976;2023-05-10T11:15:19;9.83;;;9.03;;
14748;SDS011;7466;53.574;9.976;2023-05-10T11:17:49;10.00;;;9.17;;
14748;SDS011;7466;53.574;9.976;2023-05-10T11:20:19;10.20;;;9.30;;
14748;SDS011;7466;53.574;9.976;2023-05-10T11:22:50;10.10;;;9.20;;
14748;SDS011;7466;53.574;9.976;2023-05-10T11:25:22;11.07;;;10.10;;
14748;SDS011;7466;53.574;9.976;2023-05-10T11:27:53;12.13;;;9.00;;
14748;SDS011;7466;53.574;9.976;2023-05-10T11:30:19;10.27;;;9.47;;
14748;SDS011;7466;53.574;9.976;2023-05-10T11:32:48;9.93;;;9.03;;
14748;SDS011;7466;53.574;9.976;2023-05-10T11:35:36;9.67;;;9.00;;
14748;SDS011;7466;53.574;9.976;2023-05-10T11:38:05;9.77;;;8.97;;
14748;SDS011;7466;53.574;9.976;2023-05-10T11:40:33;9.87;;;9.13;;
14748;SDS011;7466;53.574;9.976;2023-05-10T11:43:00;10.37;;;9.47;;
14748;SDS011;7466;53.574;9.976;2023-05-10T11:45:27;10.30;;;9.50;;
14748;SDS011;7466;53.574;9.976;2023-05-10T11:47:56;10.13;;;9.33;;
14748;SDS011;7466;53.574;9.976;2023-05-10T11:50:23;12.40;;;9.80;;
14748;SDS011;7466;53.574;9.976;2023-05-10T11:52:51;11.80;;;10.63;;
14748;SDS011;7466;53.574;9.976;2023-05-10T11:55:18;11.00;;;10.20;;
14748;SDS011;7466;53.574;9.976;2023-05-10T11:57:52;12.17;;;10.47;;
14748;SDS011;7466;53.574;9.976;2023-05-10T12:00:19;11.60;;;10.70;;
14748;SDS011;7466;53.574;9.976;2023-05-10T12:02:46;11.83;;;10.80;;
14748;SDS011;7466;53.574;9.976;2023-05-10T12:05:14;12.43;;;11.27;;
14748;SDS011;7466;53.574;9.976;2023-05-10T12:07:41;12.20;;;11.00;;
14748;SDS011;7466;53.574;9.976;2023-05-10T12:10:08;13.00;;;11.70;;
14748;SDS011;7466;53.574;9.976;2023-05-10T12:12:37;11.87;;;10.70;;
14748;SDS011;7466;53.574;9.976;2023-05-10T12:15:08;12.47;;;11.17;;
14748;SDS011;7466;53.574;9.976;2023-05-10T12:17:37;12.13;;;11.00;;
14748;SDS011;7466;53.574;9.976;2023-05-10T12:20:17;11.60;;;10.53;;
14748;SDS011;7466;53.574;9.976;2023-05-10T12:22:49;10.07;;;9.17;;
14748;SDS011;7466;53.574;9.976;2023-05-10T12:25:17;10.07;;;9.17;;
14748;SDS011;7466;53.574;9.976;2023-05-10T12:27:51;10.70;;;9.60;;
14748;SDS011;7466;53.574;9.976;2023-05-10T12:30:20;11.37;;;9.43;;
14748;SDS011;7466;53.574;9.976;2023-05-10T12:32:47;11.10;;;9.90;;
14748;SDS011;7466;53.574;9.976;2023-05-10T12:35:14;10.27;;;9.47;;
14748;SDS011;7466;53.574;9.976;2023-05-10T12:37:42;10.00;;;9.10;;
14748;SDS011;7466;53.574;9.976;2023-05-10T12:40:10;9.80;;;9.07;;
14748;SDS011;7466;53.574;9.976;2023-05-10T12:42:38;10.13;;;9.33;;
14748;SDS011;7466;53.574;9.976;2023-05-10T12:45:06;9.83;;;8.90;;
14748;SDS011;7466;53.574;9.976;2023-05-10T12:47:35;8.90;;;8.30;;
14748;SDS011;7466;53.574;9.976;2023-05-10T12:50:04;9.00;;;8.33;;
14748;SDS011;7466;53.574;9.976;2023-05-10T12:52:31;9.83;;;9.10;;
14748;SDS011;7466;53.574;9.976;2023-05-10T12:55:00;10.30;;;9.50;;
14748;SDS011;7466;53.574;9.976;2023-05-10T12:57:28;10.27;;;9.33;;
14748;SDS011;7466;53.574;9.976;2023-05-10T12:59:56;9.33;;;8.60;;
14748;SDS011;7466;53.574;9.976;2023-05-10T13:02:23;9.63;;;8.73;;
14748;SDS011;7466;53.574;9.976;2023-05-10T13:04:51;9.20;;;8.53;;
14748;SDS011;7466;53.574;9.976;2023-05-10T13:07:18;8.93;;;8.33;;
14748;SDS011;7466;53.574;9.976;2023-05-10T13:09:51;11.30;;;8.13;;
14748;SDS011;7466;53.574;9.976;2023-05-10T13:12:17;10.53;;;7.87;;
14748;SDS011;7466;53.574;9.976;2023-05-10T13:14:48;9.20;;;8.30;;
14748;SDS011;7466;53.574;9.976;2023-05-10T13:17:15;10.00;;;9.10;;
14748;SDS011;7466;53.574;9.976;2023-05-10T13:19:42;12.00;;;8.80;;
14748;SDS011;7466;53.574;9.976;2023-05-10T13:22:13;8.43;;;7.67;;
14748;SDS011;7466;53.574;9.976;2023-05-10T13:24:40;9.23;;;8.50;;
14748;SDS011;7466;53.574;9.976;2023-05-10T13:27:07;19.77;;;9.40;;
14748;SDS011;7466;53.574;9.976;2023-05-10T13:29:33;9.43;;;8.57;;
14748;SDS011;7466;53.574;9.976;2023-05-10T13:32:00;8.80;;;7.67;;
14748;SDS011;7466;53.574;9.976;2023-05-10T13:34:27;10.47;;;8.00;;
14748;SDS011;7466;53.574;9.976;2023-05-10T13:36:54;18.73;;;7.93;;
14748;SDS011;7466;53.574;9.976;2023-05-10T13:39:22;14.93;;;7.67;;
14748;SDS011;7466;53.574;9.976;2023-05-10T13:41:49;14.40;;;8.13;;
14748;SDS011;7466;53.574;9.976;2023-05-10T13:44:17;13.20;;;7.73;;
14748;SDS011;7466;53.574;9.976;2023-05-10T13:46:44;7.57;;;7.07;;
14748;SDS011;7466;53.574;9.976;2023-05-10T13:49:11;8.37;;;7.70;;
14748;SDS011;7466;53.574;9.976;2023-05-10T13:51:39;8.10;;;7.50;;
14748;SDS011;7466;53.574;9.976;2023-05-10T13:54:06;7.87;;;7.27;;
14748;SDS011;7466;53.574;9.976;2023-05-10T13:56:34;7.53;;;6.87;;
14748;SDS011;7466;53.574;9.976;2023-05-10T13:59:01;8.17;;;7.57;;
14748;SDS011;7466;53.574;9.976;2023-05-10T14:01:28;8.37;;;7.70;;
14748;SDS011;7466;53.574;9.976;2023-05-10T14:03:56;8.10;;;7.40;;
14748;SDS011;7466;53.574;9.976;2023-05-10T14:06:26;7.80;;;7.10;;
14748;SDS011;7466;53.574;9.976;2023-05-10T14:08:53;7.17;;;6.70;;
14748;SDS011;7466;53.574;9.976;2023-05-10T14:11:20;7.20;;;6.70;;
14748;SDS011;7466;53.574;9.976;2023-05-10T14:13:49;7.73;;;7.23;;
14748;SDS011;7466;53.574;9.976;2023-05-10T14:16:16;7.80;;;7.23;;
14748;SDS011;7466;53.574;9.976;2023-05-10T14:18:44;7.77;;;7.13;;
14748;SDS011;7466;53.574;9.976;2023-05-10T14:21:10;7.57;;;7.07;;
14748;SDS011;7466;53.574;9.976;2023-05-10T14:23:37;8.27;;;7.73;;
14748;SDS011;7466;53.574;9.976;2023-05-10T14:26:04;8.47;;;7.63;;
14748;SDS011;7466;53.574;9.976;2023-05-10T14:28:31;7.70;;;7.20;;
14748;SDS011;7466;53.574;9.976;2023-05-10T14:30:59;8.17;;;7.53;;
14748;SDS011;7466;53.574;9.976;2023-05-10T14:33:26;7.40;;;6.90;;
14748;SDS011;7466;53.574;9.976;2023-05-10T14:35:53;8.00;;;7.30;;
14748;SDS011;7466;53.574;9.976;2023-05-10T14:38:21;7.37;;;6.60;;
14748;SDS011;7466;53.574;9.976;2023-05-10T14:40:50;7.97;;;7.37;;
14748;SDS011;7466;53.574;9.976;2023-05-10T14:43:16;8.73;;;8.03;;
14748;SDS011;7466;53.574;9.976;2023-05-10T14:45:43;9.57;;;7.80;;
14748;SDS011;7466;53.574;9.976;2023-05-10T14:48:12;7.70;;;7.10;;
14748;SDS011;7466;53.574;9.976;2023-05-10T14:50:41;7.37;;;6.87;;
14748;SDS011;7466;53.574;9.976;2023-05-10T14:53:50;7.40;;;6.90;;
14748;SDS011;7466;53.574;9.976;2023-05-10T14:56:05;17.83;;;8.27;;
14748;SDS011;7466;53.574;9.976;2023-05-10T14:58:32;11.20;;;7.33;;
14748;SDS011;7466;53.574;9.976;2023-05-10T15:00:59;8.10;;;7.30;;
14748;SDS011;7466;53.574;9.976;2023-05-10T15:03:27;8.53;;;7.73;;
14748;SDS011;7466;53.574;9.976;2023-05-10T15:05:54;10.70;;;7.50;;
14748;SDS011;7466;53.574;9.976;2023-05-10T15:08:22;9.50;;;7.60;;
14748;SDS011;7466;53.574;9.976;2023-05-10T15:10:51;20.77;;;8.63;;
14748;SDS011;7466;53.574;9.976;2023-05-10T15:13:34;10.60;;;7.90;;
14748;SDS011;7466;53.574;9.976;2023-05-10T15:16:01;7.57;;;6.97;;